Time;durP1;ratioP1;P1;durP2;ratioP2;P2;SDS_P1;SDS_P2;PMS_P1;PMS_P2;Temp;Humidity;BMP_temperature;BMP_pressure;BME280_temperature;BME280_humidity;BME280_pressure;Samples;Min_cycle;Max_cycle;Signal;HPM_P1;HPM_P2
2022/08/23 00:01:46;;;;;;;1.25;1.10;;;;;;;35.52;28.50;97729.28;5023734;28;20053;-82
2022/08/23 00:04:17;;;;;;;0.80;0.80;;;;;;;35.54;28.37;97725.88;5026521;28;20128;-82
2022/08/23 00:06:44;;;;;;;1.27;1.02;;;;;;;35.34;28.54;97721.19;5024638;28;20572;-82
2022/08/23 00:09:11;;;;;;;1.65;1.17;;;;;;;35.29;28.74;97733.38;5024013;28;20056;-82
2022/08/23 00:11:41;;;;;;;1.17;1.10;;;;;;;35.32;28.80;97730.28;5024861;28;20025;-82
2022/08/23 00:14:14;;;;;;;1.08;0.93;;;;;;;35.37;28.89;97731.59;5025017;28;20041;-82
2022/08/23 00:16:41;;;;;;;1.63;1.20;;;;;;;35.37;28.74;97743.78;5034903;28;20456;-82
2022/08/23 00:19:09;;;;;;;1.05;1.02;;;;;;;35.00;29.18;97751.00;5023863;28;20382;-82
2022/08/23 00:21:41;;;;;;;2.38;1.05;;;;;;;34.82;29.63;97751.50;5027287;28;20039;-83
2022/08/23 00:24:10;;;;;;;1.10;1.00;;;;;;;34.94;29.37;97745.28;5022791;28;20056;-82
2022/08/23 00:26:53;;;;;;;1.83;1.67;;;;;;;35.09;29.39;97745.06;5027952;28;20022;-82
2022/08/23 00:29:21;;;;;;;3.95;1.80;;;;;;;35.01;29.10;97755.44;5026199;28;20509;-82
2022/08/23 00:31:48;;;;;;;3.13;1.63;;;;;;;34.86;29.45;97758.50;5024207;28;20028;-82
2022/08/23 00:34:15;;;;;;;2.20;1.70;;;;;;;34.97;29.15;97757.75;5027200;28;20042;-82
2022/08/23 00:36:43;;;;;;;2.20;2.00;;;;;;;34.98;29.23;97759.31;5026952;28;20039;-82
2022/08/23 00:39:13;;;;;;;1.67;1.58;;;;;;;35.01;29.20;97766.84;5023648;28;20029;-82
2022/08/23 00:41:39;;;;;;;2.17;1.80;;;;;;;35.09;29.14;97774.41;5023523;28;20481;-82
2022/08/23 00:49:49;;;;;;;2.72;2.20;;;;;;;34.22;30.55;97770.72;5024313;28;20499;-82
2022/08/23 00:52:37;;;;;;;2.70;2.20;;;;;;;34.16;31.12;97777.69;5027429;28;20030;-82
2022/08/23 00:55:04;;;;;;;1.92;1.83;;;;;;;34.35;30.36;97773.09;5029639;28;20390;-82
2022/08/23 00:57:31;;;;;;;2.70;2.50;;;;;;;34.26;30.50;97771.25;5037442;28;20129;-82
2022/08/23 00:59:57;;;;;;;2.00;1.80;;;;;;;34.05;30.89;97762.06;5031221;28;20045;-82
2022/08/23 01:02:25;;;;;;;2.58;2.10;;;;;;;34.28;30.58;97771.53;5026278;28;20060;-82
2022/08/23 01:04:57;;;;;;;2.05;1.77;;;;;;;34.54;30.24;97765.69;5029952;28;20446;-82
2022/08/23 01:07:49;;;;;;;2.92;1.92;;;;;;;34.42;30.31;97767.69;5028534;28;20033;-82
2022/08/23 01:10:34;;;;;;;2.85;2.55;;;;;;;34.00;30.71;97762.78;5025038;28;20049;-82
2022/08/23 01:13:28;;;;;;;3.05;2.42;;;;;;;33.80;31.13;97770.69;5025391;28;20465;-82
2022/08/23 01:16:33;;;;;;;3.05;2.67;;;;;;;33.78;31.35;97773.28;5026591;28;20454;-83
2022/08/23 01:19:02;;;;;;;2.28;2.08;;;;;;;33.98;30.74;97778.88;5017350;28;20041;-83
2022/08/23 01:21:47;;;;;;;2.17;2.00;;;;;;;34.01;30.97;97778.59;5029948;28;20092;-83
2022/08/23 01:24:16;;;;;;;1.67;1.58;;;;;;;34.12;30.53;97762.91;5024209;28;20029;-83
2022/08/23 01:26:42;;;;;;;3.65;2.08;;;;;;;34.22;30.57;97765.00;5023999;28;20124;-83
2022/08/23 01:29:09;;;;;;;2.33;2.13;;;;;;;34.32;30.26;97766.34;5024956;28;20091;-83
2022/08/23 01:31:39;;;;;;;2.25;2.05;;;;;;;34.23;30.42;97765.78;5023297;28;20037;-83
2022/08/23 01:34:09;;;;;;;1.90;1.77;;;;;;;34.07;30.60;97767.28;5023782;28;20044;-83
2022/08/23 01:36:38;;;;;;;2.40;1.80;;;;;;;34.20;30.56;97778.22;5028995;28;20030;-83
2022/08/23 01:39:07;;;;;;;1.60;1.50;;;;;;;34.26;30.73;97776.19;5024708;28;20140;-83
2022/08/23 01:41:33;;;;;;;2.22;2.03;;;;;;;34.52;30.14;97771.91;5028113;28;20025;-83
2022/08/23 01:44:00;;;;;;;1.73;1.52;;;;;;;34.39;30.24;97774.41;5021720;28;20030;-83
2022/08/23 01:46:47;;;;;;;1.67;1.58;;;;;;;34.58;30.25;97769.84;5040476;28;20034;-81
2022/08/23 01:49:19;;;;;;;1.90;1.70;;;;;;;34.31;29.93;97773.34;5027515;28;20061;-81
2022/08/23 01:51:45;;;;;;;2.20;1.85;;;;;;;34.01;30.69;97774.97;5031483;28;20060;-80
2022/08/23 01:54:12;;;;;;;2.10;1.92;;;;;;;34.10;30.59;97771.94;5023336;28;20030;-80
2022/08/23 01:56:40;;;;;;;2.05;1.85;;;;;;;34.14;30.67;97766.81;5021583;28;20559;-80
2022/08/23 01:59:08;;;;;;;4.43;2.22;;;;;;;34.22;30.82;97776.41;5004402;28;20034;-80
2022/08/23 02:01:36;;;;;;;1.90;1.80;;;;;;;34.58;30.14;97778.41;4999772;28;20390;-81
2022/08/23 02:04:02;;;;;;;1.45;1.33;;;;;;;34.90;29.52;97778.22;5009979;28;20030;-81
2022/08/23 02:06:29;;;;;;;3.53;1.63;;;;;;;34.98;29.27;97785.00;4992531;28;20117;-80
2022/08/23 02:09:01;;;;;;;2.55;2.35;;;;;;;34.47;30.21;97783.28;5008035;28;20038;-80
2022/08/23 02:11:34;;;;;;;2.20;1.80;;;;;;;34.21;30.45;97780.56;5006914;28;20037;-81
2022/08/23 02:14:04;;;;;;;2.10;1.90;;;;;;;34.32;30.21;97786.31;4990419;28;20022;-80
2022/08/23 02:16:36;;;;;;;6.68;2.38;;;;;;;34.44;30.15;97784.28;5007323;28;20087;-81
2022/08/23 02:19:10;;;;;;;2.28;1.92;;;;;;;34.33;30.17;97779.31;5005755;28;20482;-81
2022/08/23 02:21:38;;;;;;;3.30;1.98;;;;;;;34.47;30.09;97778.31;5009767;28;20116;-80
2022/08/23 02:24:08;;;;;;;3.22;1.60;;;;;;;34.75;29.72;97772.75;4991038;28;20536;-80
2022/08/23 02:26:39;;;;;;;1.42;1.33;;;;;;;34.98;29.11;97777.22;5005316;28;20026;-80
2022/08/23 02:29:06;;;;;;;1.63;1.52;;;;;;;35.13;28.89;97789.19;5005455;28;20042;-81
2022/08/23 02:31:35;;;;;;;2.75;1.70;;;;;;;35.20;28.84;97782.19;5004237;28;20221;-81
2022/08/23 02:34:01;;;;;;;1.33;1.23;;;;;;;35.16;28.88;97790.22;5002880;28;20034;-81
2022/08/23 02:36:28;;;;;;;1.55;1.45;;;;;;;35.17;29.11;97786.84;5003553;28;20584;-80
2022/08/23 02:38:54;;;;;;;2.30;1.67;;;;;;;35.31;28.66;97782.22;5001767;28;20050;-80
2022/08/23 02:41:21;;;;;;;1.45;1.35;;;;;;;35.03;29.03;97785.00;5001817;28;20042;-80
2022/08/23 02:43:51;;;;;;;1.77;1.67;;;;;;;34.76;29.58;97791.41;5003002;28;20060;-80
2022/08/23 02:46:18;;;;;;;2.17;1.65;;;;;;;34.66;29.56;97781.53;5002255;28;20073;-81
2022/08/23 02:48:47;;;;;;;1.55;1.45;;;;;;;34.52;29.81;97789.00;5004061;28;20040;-81
2022/08/23 02:51:16;;;;;;;1.50;1.40;;;;;;;34.55;29.64;97784.34;5003214;28;20445;-80
2022/08/23 02:53:43;;;;;;;1.70;1.60;;;;;;;34.36;29.98;97777.50;4989673;28;20535;-80
2022/08/23 02:56:12;;;;;;;4.18;1.88;;;;;;;34.38;30.31;97784.25;4992685;28;20419;-80
2022/08/23 02:58:39;;;;;;;1.73;1.63;;;;;;;34.47;30.08;97781.19;5028150;28;20037;-80
2022/08/23 03:01:15;;;;;;;1.75;1.52;;;;;;;34.58;29.67;97789.03;5021888;28;20065;-80
2022/08/23 03:03:42;;;;;;;2.05;1.73;;;;;;;34.44;29.77;97782.22;5039864;28;20033;-81
2022/08/23 03:06:08;;;;;;;1.63;1.52;;;;;;;34.47;29.94;97783.28;5035419;28;20389;-80
2022/08/23 03:08:34;;;;;;;2.47;2.28;;;;;;;34.60;29.56;97784.38;5026156;28;20041;-80
2022/08/23 03:11:14;;;;;;;2.15;2.00;;;;;;;34.51;29.96;97787.44;5023585;28;20037;-81
2022/08/23 03:13:41;;;;;;;2.20;2.00;;;;;;;34.42;29.82;97792.56;5022329;28;20033;-81
2022/08/23 03:16:08;;;;;;;2.38;1.92;;;;;;;34.07;30.60;97790.84;5019659;28;20052;-81
2022/08/23 03:18:36;;;;;;;4.70;3.38;;;;;;;33.87;30.53;97793.00;5024156;28;20493;-83
2022/08/23 03:21:04;;;;;;;2.40;2.00;;;;;;;33.69;31.35;97797.06;5025475;28;20108;-83
2022/08/23 03:23:54;;;;;;;3.33;3.00;;;;;;;33.59;31.47;97797.75;5022441;28;20039;-83
2022/08/23 03:26:24;;;;;;;1.98;1.80;;;;;;;33.73;30.99;97799.66;5021111;28;20179;-83
2022/08/23 03:28:50;;;;;;;2.80;2.20;;;;;;;33.95;30.61;97794.91;5023489;28;20041;-83
2022/08/23 03:31:16;;;;;;;3.35;2.42;;;;;;;34.00;30.51;97807.63;5023826;28;20083;-83
2022/08/23 03:33:43;;;;;;;3.63;2.78;;;;;;;34.27;30.28;97803.38;5025230;28;20401;-83
2022/08/23 03:36:19;;;;;;;2.70;2.50;;;;;;;34.19;30.28;97803.09;5021194;28;20033;-83
2022/08/23 03:38:53;;;;;;;3.70;2.70;;;;;;;34.23;30.22;97809.34;5024608;28;20079;-83
2022/08/23 03:41:23;;;;;;;2.90;2.42;;;;;;;34.01;30.36;97803.47;5036052;28;20022;-83
2022/08/23 03:43:49;;;;;;;3.25;2.85;;;;;;;33.86;30.54;97800.03;5025660;28;20037;-83
2022/08/23 03:46:22;;;;;;;3.97;2.95;;;;;;;33.50;30.88;97800.75;5022499;28;20033;-83
2022/08/23 03:49:16;;;;;;;4.43;3.28;;;;;;;33.70;31.14;97803.53;5025511;28;20132;-83
2022/08/23 03:51:42;;;;;;;2.80;2.47;;;;;;;33.99;30.38;97803.97;5024597;28;20065;-83
2022/08/23 03:54:52;;;;;;;4.90;2.40;;;;;;;34.10;30.35;97816.78;5022803;28;20125;-83
2022/08/23 04:00:28;;;;;;;2.58;2.17;;;;;;;34.70;29.39;97822.00;4988884;28;20038;-83
2022/08/23 04:06:15;;;;;;;2.20;2.00;;;;;;;34.58;29.48;97818.34;5001197;28;20038;-83
2022/08/23 04:23:30;;;;;;;;;;;;;;;;;;;;;
2022/08/23 04:25:59;;;;;;;3.63;2.50;;;;;;;34.54;29.54;97828.44;4949897;28;20556;-80
2022/08/23 04:29:20;;;;;;;;;;;;;;;;;;;;;
2022/08/23 04:31:49;;;;;;;;;;;;;;;34.51;29.42;97826.56;5001984;28;20050;-81
2022/08/23 04:44:35;;;;;;;2.35;1.30;;;;;;;35.24;29.07;97829.16;4941621;29;20046;-85
2022/08/23 04:47:11;;;;;;;2.92;1.92;;;;;;;35.19;29.03;97826.31;4943112;29;20039;-84
2022/08/23 04:58:13;;;;;;;1.60;1.48;;;;;;;34.98;29.56;97848.56;4993342;28;20064;-82
2022/08/23 05:00:39;;;;;;;2.08;1.88;;;;;;;34.94;29.90;97850.84;4993388;28;20129;-82
2022/08/23 05:03:38;;;;;;;;;;;;;;;;;;;;;
2022/08/23 05:06:11;;;;;;;2.28;2.05;;;;;;;35.20;29.61;97856.41;5052749;23;20049;-83
2022/08/23 06:03:59;;;;;;;1.88;1.77;;;;;;;35.48;30.01;97899.28;5008882;28;20567;-80
2022/08/23 06:07:05;;;;;;;4.45;1.90;;;;;;;35.61;30.58;97903.25;5009505;28;20152;-80
2022/08/23 06:09:34;;;;;;;2.05;1.40;;;;;;;35.87;30.29;97903.00;4929898;29;20039;-81
2022/08/23 06:12:00;;;;;;;1.75;1.65;;;;;;;35.99;29.22;97902.47;4927724;29;20044;-80
2022/08/23 06:14:38;;;;;;;1.23;1.10;;;;;;;36.17;29.83;97903.25;4926387;29;20048;-81
2022/08/23 06:17:12;;;;;;;1.73;1.48;;;;;;;36.31;29.47;97911.56;4914697;29;20082;-80
2022/08/23 06:19:39;;;;;;;1.70;1.60;;;;;;;36.44;29.99;97908.94;4928328;29;20531;-81
2022/08/23 06:22:05;;;;;;;1.48;1.35;;;;;;;36.32;30.06;97913.09;4980872;28;20050;-81
2022/08/23 06:25:18;;;;;;;1.70;1.55;;;;;;;36.60;29.94;97910.22;4987328;28;20035;-81
2022/08/23 06:31:46;;;;;;;3.67;1.90;;;;;;;36.31;30.21;97919.34;4944866;29;20047;-81
2022/08/23 06:34:21;;;;;;;2.22;2.03;;;;;;;36.21;30.75;97921.72;4946143;28;20046;-81
2022/08/23 06:36:54;;;;;;;2.25;1.95;;;;;;;36.39;30.75;97926.09;4968594;28;20406;-81
2022/08/23 06:39:40;;;;;;;;;;;;;;;;;;;;;
2022/08/23 06:46:31;;;;;;;;;;;;;;;;;;;;;
2022/08/23 06:49:04;;;;;;;2.08;1.88;;;;;;;35.67;30.65;97932.59;4951298;28;20498;-81
2022/08/23 06:54:52;;;;;;;2.08;1.90;;;;;;;36.05;30.10;97933.94;4985528;28;20434;-81
2022/08/23 07:58:05;;;;;;;1.63;1.52;;;;;;;38.19;30.20;97966.41;4862780;29;20424;-81
2022/08/23 08:00:38;;;;;;;2.50;1.42;;;;;;;38.19;29.80;97967.19;4866484;29;20041;-83
2022/08/23 08:03:06;;;;;;;1.92;1.70;;;;;;;38.38;29.41;97962.38;4864673;29;20052;-82
2022/08/23 08:05:35;;;;;;;1.60;1.50;;;;;;;38.32;30.11;97967.41;4866604;29;20075;-83
2022/08/23 08:08:45;;;;;;;1.60;1.50;;;;;;;38.36;29.89;97969.97;4864577;29;20041;-83
2022/08/23 08:11:31;;;;;;;2.05;1.80;;;;;;;38.30;29.03;97974.97;4866770;29;20123;-82
2022/08/23 08:14:06;;;;;;;1.85;1.75;;;;;;;37.50;30.19;97963.78;4863175;29;20053;-83
2022/08/23 08:16:35;;;;;;;1.88;1.67;;;;;;;37.89;30.00;97969.28;4866161;29;20045;-82
2022/08/23 08:19:05;;;;;;;2.08;1.75;;;;;;;38.30;28.80;97977.84;4854195;29;20044;-82
2022/08/23 08:21:32;;;;;;;1.77;1.67;;;;;;;38.09;28.38;97976.69;4860911;29;20402;-84
2022/08/23 08:23:59;;;;;;;1.48;1.38;;;;;;;38.09;28.24;97976.69;4872737;29;20081;-82
2022/08/23 08:26:26;;;;;;;1.20;1.10;;;;;;;38.48;29.38;97980.03;4850842;29;20494;-83
2022/08/23 08:28:55;;;;;;;2.15;2.00;;;;;;;37.12;30.35;97981.88;4854664;29;20049;-81
2022/08/23 08:31:27;;;;;;;3.15;1.60;;;;;;;37.78;30.28;97975.06;4857216;29;20042;-83
2022/08/23 08:33:53;;;;;;;1.67;1.52;;;;;;;38.11;29.76;97979.81;4853490;29;20466;-83
2022/08/23 08:36:41;;;;;;;1.38;1.27;;;;;;;38.38;29.34;97978.81;4860977;29;20053;-82
2022/08/23 08:39:10;;;;;;;1.40;1.30;;;;;;;38.66;30.34;97982.19;4846569;29;20045;-82
2022/08/23 08:41:50;;;;;;;2.63;1.70;;;;;;;38.61;29.66;97994.50;4854761;29;20081;-83
2022/08/23 08:44:41;;;;;;;1.60;1.50;;;;;;;38.72;29.29;97989.44;4862136;29;20042;-82
2022/08/23 08:47:19;;;;;;;1.58;1.20;;;;;;;38.57;27.63;97991.94;4855838;29;20057;-82
2022/08/23 08:49:51;;;;;;;1.92;1.70;;;;;;;38.65;27.35;97995.00;4837128;29;20098;-81
2022/08/23 08:52:29;;;;;;;1.05;1.05;;;;;;;38.92;29.25;98001.78;4855435;29;20050;-81
2022/08/23 08:55:25;;;;;;;2.35;1.10;;;;;;;38.72;28.86;98002.25;4859485;29;20072;-82
2022/08/23 08:57:53;;;;;;;1.60;1.50;;;;;;;38.57;29.41;98002.63;4854131;29;20046;-81
2022/08/23 09:00:32;;;;;;;1.30;1.20;;;;;;;38.76;29.61;98006.38;4845641;29;20093;-81
2022/08/23 09:03:03;;;;;;;1.30;1.20;;;;;;;38.92;27.62;97998.91;4840262;29;20167;-82
2022/08/23 09:05:35;;;;;;;;;;;;;;;39.04;26.07;98000.34;4835622;29;20041;-81
2022/08/23 09:08:01;;;;;;;1.55;0.90;;;;;;;39.14;26.42;97999.41;4856207;29;19935;-81
2022/08/23 09:10:33;;;;;;;1.00;1.00;;;;;;;38.95;28.23;97997.84;4856158;29;20045;-82
2022/08/23 09:13:33;;;;;;;2.92;1.50;;;;;;;38.19;28.90;98012.31;4838576;29;20502;-83
2022/08/23 09:16:34;;;;;;;1.50;1.40;;;;;;;37.91;30.13;98001.84;4837565;29;20046;-81
2022/08/23 09:19:02;;;;;;;1.50;1.40;;;;;;;37.83;29.74;97995.09;4828401;29;20053;-82
2022/08/23 09:21:40;;;;;;;1.85;1.75;;;;;;;38.10;28.95;97998.31;4854029;29;20046;-82
2022/08/23 09:24:06;;;;;;;1.40;1.20;;;;;;;38.07;28.44;97993.66;4855537;29;20101;-82
2022/08/23 09:26:33;;;;;;;2.88;2.08;;;;;;;37.08;32.50;97995.69;4841483;29;20049;-81
2022/08/23 09:29:03;;;;;;;2.88;1.90;;;;;;;37.38;29.18;97988.84;4860289;29;20109;-81
2022/08/23 09:32:08;;;;;;;;;;;;;;;38.34;28.39;97990.59;4859783;29;20041;-82
2022/08/23 09:34:35;;;;;;;1.40;1.30;;;;;;;39.07;27.48;97988.53;4799828;29;20298;-84
2022/08/23 09:37:18;;;;;;;1.60;1.50;;;;;;;39.00;28.47;97994.13;4786853;29;20120;-83
2022/08/23 09:40:12;;;;;;;1.40;1.30;;;;;;;39.14;29.34;98002.28;4832764;29;20095;-82
2022/08/23 09:42:40;;;;;;;1.40;1.30;;;;;;;39.58;28.43;97991.59;4850024;29;20038;-83
2022/08/23 09:45:30;;;;;;;1.42;1.33;;;;;;;39.68;28.41;97995.63;4851955;29;20097;-83
2022/08/23 09:48:00;;;;;;;1.13;1.10;;;;;;;40.03;27.81;98001.94;4856975;29;20057;-83
2022/08/23 09:50:38;;;;;;;1.43;1.33;;;;;;;40.19;27.15;97997.22;4857763;29;20054;-85
2022/08/23 09:53:11;;;;;;;1.48;1.38;;;;;;;40.26;27.67;97996.59;4822066;29;20595;-84
2022/08/23 09:55:50;;;;;;;1.38;1.10;;;;;;;40.39;26.52;97998.75;4861829;29;20045;-84
2022/08/23 09:58:31;;;;;;;1.25;1.15;;;;;;;40.40;26.61;97992.44;4860447;29;20049;-84
2022/08/23 10:01:15;;;;;;;1.45;1.35;;;;;;;39.31;27.44;97999.25;4860247;29;20060;-83
2022/08/23 10:03:42;;;;;;;1.33;1.23;;;;;;;39.77;27.76;97996.03;4857214;29;20049;-82
2022/08/23 10:06:14;;;;;;;1.33;1.20;;;;;;;40.09;25.58;98003.94;4855136;29;20037;-82
2022/08/23 10:08:54;;;;;;;1.30;1.20;;;;;;;39.99;27.96;98000.66;4845067;29;20049;-84
2022/08/23 10:11:28;;;;;;;1.52;1.42;;;;;;;37.93;31.83;98009.88;4860237;29;20089;-84
2022/08/23 10:13:54;;;;;;;1.67;1.58;;;;;;;37.30;31.77;98007.06;4860391;29;20073;-83
2022/08/23 10:16:40;;;;;;;1.30;1.20;;;;;;;37.45;28.13;98012.50;4854905;29;20529;-84
2022/08/23 10:19:31;;;;;;;1.55;1.45;;;;;;;37.97;30.09;98004.66;4840994;29;20050;-84
2022/08/23 10:22:19;;;;;;;3.20;0.88;;;;;;;38.40;29.15;98007.72;4852611;29;20090;-85
2022/08/23 10:25:20;;;;;;;3.55;0.98;;;;;;;38.90;28.90;98004.41;4853507;29;20115;-84
2022/08/23 10:31:31;;;;;;;1.25;1.15;;;;;;;39.65;28.00;98006.16;4859302;29;20096;-84
2022/08/23 10:34:12;;;;;;;0.90;0.90;;;;;;;40.00;28.29;98002.22;4853686;29;20037;-84
2022/08/23 10:37:03;;;;;;;1.00;1.00;;;;;;;40.04;26.27;98002.72;4851003;29;20045;-84
2022/08/23 10:39:31;;;;;;;1.15;1.13;;;;;;;40.16;26.69;98001.22;4853745;29;20149;-84
2022/08/23 10:42:24;;;;;;;1.10;1.00;;;;;;;40.23;27.69;98009.22;4855251;29;20052;-85
2022/08/23 10:45:10;;;;;;;1.10;1.08;;;;;;;39.75;27.17;98007.28;4842054;29;20057;-85
2022/08/23 10:47:48;;;;;;;1.52;1.33;;;;;;;39.52;26.94;98005.25;4855120;29;20418;-86
2022/08/23 10:50:18;;;;;;;1.08;0.95;;;;;;;39.27;27.28;98016.03;4858495;29;20132;-85
2022/08/23 10:53:03;;;;;;;1.20;1.10;;;;;;;39.49;27.04;98015.72;4851587;29;20050;-85
2022/08/23 10:56:16;;;;;;;1.20;1.15;;;;;;;39.16;26.86;98016.91;4859540;29;20442;-86
2022/08/23 10:58:57;;;;;;;1.17;1.10;;;;;;;39.24;27.04;98011.34;4853506;29;20558;-86
2022/08/23 11:01:45;;;;;;;0.90;0.90;;;;;;;39.43;28.92;98017.13;4858393;29;20053;-85
2022/08/23 11:04:50;;;;;;;3.05;2.80;;;;;;;37.49;28.57;98018.72;4836628;29;20041;-85
2022/08/23 11:07:22;;;;;;;1.85;1.73;;;;;;;38.27;29.29;98013.31;4856325;29;20037;-85
2022/08/23 11:09:54;;;;;;;2.45;2.10;;;;;;;38.58;29.51;98018.53;4852065;29;20129;-85
2022/08/23 11:12:30;;;;;;;4.45;3.72;;;;;;;36.46;30.70;98022.84;4854984;29;20069;-86
2022/08/23 11:14:59;;;;;;;2.50;2.30;;;;;;;36.08;32.61;98023.59;4855013;29;20068;-88
2022/08/23 11:17:44;;;;;;;2.80;2.60;;;;;;;37.58;29.98;98018.41;4855196;29;20045;-85
2022/08/23 11:20:35;;;;;;;2.47;2.28;;;;;;;38.25;31.60;98019.59;4853382;29;20497;-85
2022/08/23 11:23:03;;;;;;;3.88;2.88;;;;;;;36.90;35.27;98022.78;4854775;29;20071;-83
2022/08/23 11:25:29;;;;;;;2.33;2.22;;;;;;;36.90;32.17;98027.75;4860669;29;20399;-84
2022/08/23 11:28:20;;;;;;;3.33;2.90;;;;;;;36.28;30.89;98026.19;4860204;29;20492;-84
2022/08/23 11:30:56;;;;;;;2.25;2.10;;;;;;;37.82;31.44;98027.16;4856600;29;20506;-84
2022/08/23 11:33:46;;;;;;;4.15;2.00;;;;;;;38.75;29.91;98036.41;4860597;29;20050;-84
2022/08/23 11:36:22;;;;;;;3.55;2.70;;;;;;;39.06;30.08;98029.28;4859816;29;20069;-84
2022/08/23 11:38:48;;;;;;;2.47;2.30;;;;;;;38.37;32.95;98032.53;4860447;29;20049;-84
2022/08/23 11:41:23;;;;;;;3.35;3.05;;;;;;;38.32;28.43;98027.66;4860652;29;20041;-84
2022/08/23 11:44:12;;;;;;;3.53;3.15;;;;;;;37.27;31.78;98034.66;4855047;29;20512;-84
2022/08/23 11:46:54;;;;;;;3.30;3.10;;;;;;;37.87;29.38;98035.75;4855266;29;20121;-84
2022/08/23 11:49:37;;;;;;;3.30;3.00;;;;;;;38.26;28.87;98032.59;4860871;29;20037;-84
2022/08/23 11:52:24;;;;;;;4.25;3.65;;;;;;;38.04;31.59;98032.78;4841779;29;20042;-84
2022/08/23 11:55:37;;;;;;;3.75;3.45;;;;;;;37.74;29.75;98026.16;4842083;29;20092;-84
2022/08/23 11:58:26;;;;;;;3.17;2.97;;;;;;;37.78;29.46;98033.16;4843508;29;20073;-84
2022/08/23 12:00:52;;;;;;;3.25;3.00;;;;;;;38.06;28.97;98038.75;4863958;29;20042;-84
2022/08/23 12:03:35;;;;;;;3.00;2.80;;;;;;;38.40;30.01;98039.28;4864190;29;20049;-84
2022/08/23 12:06:32;;;;;;;3.67;2.60;;;;;;;38.30;28.23;98035.97;4864770;29;20042;-84
2022/08/23 12:09:03;;;;;;;2.95;2.75;;;;;;;38.83;27.89;98040.25;4864152;29;20056;-84
2022/08/23 12:11:54;;;;;;;3.17;2.88;;;;;;;38.77;27.97;98038.75;4864173;29;20037;-84
2022/08/23 12:14:31;;;;;;;;;;;;;;;38.26;31.67;98038.34;4864210;29;20102;-83
2022/08/23 12:17:04;;;;;;;3.58;3.28;;;;;;;37.82;35.98;98044.34;4862654;29;19949;-84
2022/08/23 12:19:50;;;;;;;5.07;4.57;;;;;;;37.65;30.39;98047.28;4850170;29;20413;-84
2022/08/23 12:22:50;;;;;;;4.78;4.30;;;;;;;37.98;31.40;98043.50;4848512;29;20124;-84
2022/08/23 12:25:19;;;;;;;4.80;3.63;;;;;;;38.25;28.75;98041.75;4863542;29;20049;-84
2022/08/23 12:27:51;;;;;;;3.90;3.50;;;;;;;38.66;28.16;98045.34;4864301;29;20042;-84
2022/08/23 12:30:28;;;;;;;3.30;3.10;;;;;;;38.92;28.52;98045.63;4854569;29;20403;-84
2022/08/23 12:33:09;;;;;;;3.00;2.80;;;;;;;37.91;30.59;98038.31;4863942;29;20098;-84
2022/08/23 12:36:03;;;;;;;3.33;3.03;;;;;;;37.96;30.51;98040.38;4863988;29;20045;-84
2022/08/23 12:38:47;;;;;;;3.47;3.22;;;;;;;38.09;28.92;98043.41;4858261;29;20055;-84
2022/08/23 12:41:23;;;;;;;4.13;3.72;;;;;;;38.28;28.56;98032.09;4863515;29;20506;-84
2022/08/23 12:44:00;;;;;;;3.47;3.17;;;;;;;38.66;30.12;98034.63;4863131;29;20090;-84
2022/08/23 12:46:41;;;;;;;3.72;3.42;;;;;;;38.05;31.17;98037.97;4859754;29;20089;-83
2022/08/23 12:49:20;;;;;;;3.70;3.40;;;;;;;36.42;33.71;98033.75;4863718;29;20041;-83
2022/08/23 12:51:53;;;;;;;2.95;2.72;;;;;;;37.60;31.28;98024.41;4863902;29;20053;-84
2022/08/23 12:54:33;;;;;;;2.97;2.70;;;;;;;38.10;30.69;98033.50;4862727;29;20041;-84
2022/08/23 12:57:00;;;;;;;3.38;3.17;;;;;;;38.00;29.15;98027.31;4863509;29;20097;-84
2022/08/23 12:59:41;;;;;;;3.55;3.28;;;;;;;38.25;31.41;98022.44;4862564;29;20100;-84
2022/08/23 13:02:09;;;;;;;;;;;;;;;38.20;27.28;98034.75;4863222;29;20093;-84
2022/08/23 13:04:38;;;;;;;3.10;2.80;;;;;;;38.48;32.63;98032.47;4860797;29;19928;-84
2022/08/23 13:07:10;;;;;;;3.20;3.00;;;;;;;38.91;27.69;98035.44;4863309;29;20034;-84
2022/08/23 13:09:39;;;;;;;3.47;3.20;;;;;;;39.16;29.15;98039.91;4862138;29;20055;-83
2022/08/23 13:12:09;;;;;;;3.15;2.95;;;;;;;39.71;28.65;98041.34;4863006;29;20052;-83
2022/08/23 13:14:47;;;;;;;2.90;2.70;;;;;;;39.41;32.26;98043.53;4863446;29;20116;-84
2022/08/23 13:17:25;;;;;;;2.67;2.53;;;;;;;39.18;29.24;98045.13;4863344;29;20803;-84
2022/08/23 13:20:01;;;;;;;2.90;2.70;;;;;;;39.57;28.99;98045.41;4862617;29;20042;-84
2022/08/23 13:22:36;;;;;;;4.03;3.30;;;;;;;38.74;29.47;98032.00;4862978;29;20063;-84
2022/08/23 13:25:22;;;;;;;3.10;2.90;;;;;;;38.99;28.96;98036.41;4846181;29;20038;-84
2022/08/23 13:27:50;;;;;;;2.70;2.50;;;;;;;38.91;31.66;98038.31;4862982;29;20057;-84
2022/08/23 13:30:18;;;;;;;2.75;2.55;;;;;;;38.61;29.15;98032.59;4862390;29;20045;-84
2022/08/23 13:32:50;;;;;;;3.05;2.78;;;;;;;38.83;30.32;98025.88;4862838;29;20098;-83
2022/08/23 13:35:33;;;;;;;3.10;2.90;;;;;;;38.08;31.12;98036.13;4861381;29;20053;-83
2022/08/23 13:38:17;;;;;;;2.85;2.65;;;;;;;38.31;30.37;98034.69;4862693;29;20494;-83
2022/08/23 13:40:58;;;;;;;3.42;3.13;;;;;;;38.13;31.33;98032.44;4862858;29;20125;-83
2022/08/23 13:43:31;;;;;;;4.68;3.08;;;;;;;38.53;30.10;98033.72;4863070;29;20394;-84
2022/08/23 13:46:10;;;;;;;2.30;2.20;;;;;;;39.38;29.17;98033.91;4862798;29;20132;-84
2022/08/23 13:48:42;;;;;;;2.78;2.53;;;;;;;39.54;29.01;98025.63;4862469;29;20525;-84
2022/08/23 13:51:31;;;;;;;2.15;2.05;;;;;;;39.01;29.95;98027.25;4861884;29;20522;-84
2022/08/23 13:54:00;;;;;;;2.45;2.35;;;;;;;38.68;28.76;98022.59;4860733;29;20061;-84
2022/08/23 13:56:29;;;;;;;2.45;2.25;;;;;;;38.86;28.67;98021.16;4861932;29;20037;-84
2022/08/23 13:59:01;;;;;;;1.70;1.60;;;;;;;38.44;29.88;98009.00;4862484;29;20094;-84
2022/08/23 14:01:27;;;;;;;2.00;1.90;;;;;;;38.83;30.00;98013.63;4862451;29;20463;-84
2022/08/23 14:03:54;;;;;;;2.40;2.20;;;;;;;38.83;30.19;98017.28;4862066;29;20062;-84
2022/08/23 14:06:20;;;;;;;2.30;2.17;;;;;;;39.17;29.70;98018.47;4862322;29;20506;-84
2022/08/23 14:08:47;;;;;;;2.20;2.10;;;;;;;39.33;28.49;98022.47;4861423;29;20045;-84
2022/08/23 14:11:14;;;;;;;2.15;2.05;;;;;;;39.67;27.36;98020.75;4862445;29;20125;-84
2022/08/23 14:13:46;;;;;;;1.88;1.77;;;;;;;39.71;28.10;98009.72;4862006;29;20090;-84
2022/08/23 14:16:25;;;;;;;2.58;2.38;;;;;;;39.15;27.55;98026.09;4861262;29;20052;-84
2022/08/23 14:18:51;;;;;;;2.25;2.10;;;;;;;39.19;28.77;98020.81;4862038;29;20558;-84
2022/08/23 14:21:17;;;;;;;3.28;1.77;;;;;;;39.17;27.90;98018.47;4861621;29;20042;-84
2022/08/23 14:23:43;;;;;;;1.90;1.80;;;;;;;39.57;28.29;98028.16;4843999;29;20129;-82
2022/08/23 14:26:16;;;;;;;2.58;2.38;;;;;;;39.34;27.74;98015.41;4849626;29;20146;-85
2022/08/23 14:28:43;;;;;;;2.40;2.20;;;;;;;39.12;28.61;98016.41;4854836;29;20052;-84
2022/08/23 14:31:09;;;;;;;2.00;1.90;;;;;;;39.23;28.13;98015.56;4854586;29;20033;-84
2022/08/23 14:33:36;;;;;;;2.00;1.90;;;;;;;39.41;29.54;98011.94;4854083;29;20046;-84
2022/08/23 14:36:02;;;;;;;2.17;1.98;;;;;;;39.29;27.91;98005.53;4851851;29;20117;-85
2022/08/23 14:38:28;;;;;;;2.28;2.08;;;;;;;39.36;27.82;98009.91;4853455;29;20041;-84
2022/08/23 14:41:02;;;;;;;1.83;1.73;;;;;;;39.75;28.21;98004.41;4855407;29;20447;-85
2022/08/23 14:43:29;;;;;;;2.42;1.50;;;;;;;39.71;28.39;98003.19;4838896;29;20494;-85
2022/08/23 14:45:56;;;;;;;2.72;1.70;;;;;;;39.52;27.61;98003.16;4851122;29;20058;-84
2022/08/23 14:48:24;;;;;;;1.90;1.80;;;;;;;39.53;28.17;98007.59;4852072;29;20052;-85
2022/08/23 14:50:51;;;;;;;1.88;1.77;;;;;;;39.52;27.68;98017.53;4855674;29;20048;-85
2022/08/23 14:53:21;;;;;;;1.67;1.58;;;;;;;39.91;28.10;98014.91;4850213;29;20157;-85
2022/08/23 14:55:50;;;;;;;;;;;;;;;39.66;26.32;98018.41;4851349;29;20406;-85
2022/08/23 14:58:16;;;;;;;2.20;2.00;;;;;;;39.24;27.44;98022.84;4854621;29;19957;-85
2022/08/23 15:00:43;;;;;;;1.52;1.42;;;;;;;39.49;28.41;98029.34;4848267;29;20081;-85
2022/08/23 15:03:13;;;;;;;1.85;1.75;;;;;;;39.42;28.62;98030.69;4850881;29;20513;-85
2022/08/23 15:05:39;;;;;;;1.90;1.80;;;;;;;39.95;28.17;98028.97;4851041;29;20568;-85
2022/08/23 15:08:05;;;;;;;1.77;1.67;;;;;;;40.09;26.96;98032.72;4835336;29;20077;-85
2022/08/23 15:10:32;;;;;;;1.75;1.65;;;;;;;40.38;27.15;98032.50;4849122;29;20106;-85
2022/08/23 15:12:58;;;;;;;1.63;1.52;;;;;;;40.45;26.72;98025.34;4848651;29;20072;-85
2022/08/23 15:15:24;;;;;;;2.00;1.90;;;;;;;40.20;26.34;98033.31;4847561;29;20050;-85